Time;durP1;ratioP1;P1;durP2;ratioP2;P2;SDS_P1;SDS_P2;PMS_P1;PMS_P2;Temp;Humidity;BMP_temperature;BMP_pressure;BME280_temperature;BME280_humidity;BME280_pressure;Samples;Min_cycle;Max_cycle;Signal;HPM_P1;HPM_P2
2021/11/16 00:00:23;;;;;;;26.67;20.53;;;7.60;59.90;;;;;;4952452;29;20459;-86
2021/11/16 00:02:49;;;;;;;31.13;21.70;;;7.60;59.90;;;;;;4953371;29;20845;-85
2021/11/16 00:05:15;;;;;;;27.10;21.57;;;7.60;59.30;;;;;;4952871;29;20273;-86
2021/11/16 00:07:41;;;;;;;29.93;22.57;;;7.60;59.60;;;;;;4952370;29;20521;-86
2021/11/16 00:10:08;;;;;;;27.17;20.70;;;7.60;59.90;;;;;;4953100;29;20207;-85
2021/11/16 00:12:34;;;;;;;28.83;21.23;;;7.60;59.90;;;;;;4952997;29;20179;-85
2021/11/16 00:15:00;;;;;;;27.00;20.07;;;7.60;59.70;;;;;;4952313;29;20461;-86
2021/11/16 00:17:25;;;;;;;27.73;21.10;;;7.60;59.90;;;;;;4952576;29;20407;-85
2021/11/16 00:19:51;;;;;;;27.90;19.77;;;7.60;59.80;;;;;;4952472;29;20175;-86
2021/11/16 00:22:18;;;;;;;25.10;19.50;;;7.60;59.10;;;;;;4952840;29;20281;-86
2021/11/16 00:25:07;;;;;;;28.10;20.30;;;7.50;59.60;;;;;;4952616;29;20421;-85
2021/11/16 00:27:33;;;;;;;26.23;19.53;;;7.50;59.70;;;;;;4953276;28;20419;-87
2021/11/16 00:30:00;;;;;;;24.70;20.33;;;7.50;59.80;;;;;;4951834;29;20945;-85
2021/11/16 00:32:25;;;;;;;27.20;21.60;;;7.60;59.90;;;;;;4953663;29;20411;-83
2021/11/16 00:34:52;;;;;;;24.60;21.00;;;7.60;59.90;;;;;;4951337;29;20462;-83
2021/11/16 00:37:25;;;;;;;25.40;19.70;;;7.60;59.10;;;;;;4951340;28;20254;-83
2021/11/16 00:39:52;;;;;;;28.93;22.70;;;7.60;59.40;;;;;;4951675;28;20412;-83
2021/11/16 00:42:18;;;;;;;27.67;20.97;;;7.60;59.90;;;;;;4952437;29;20421;-84
2021/11/16 00:44:44;;;;;;;23.63;19.03;;;7.60;59.90;;;;;;4951734;29;20465;-83
2021/11/16 00:47:10;;;;;;;29.13;21.70;;;7.60;59.90;;;;;;4951364;29;20257;-83
2021/11/16 00:49:35;;;;;;;28.63;21.30;;;7.60;59.30;;;;;;4962096;28;20193;-85
2021/11/16 00:52:02;;;;;;;27.63;21.30;;;7.60;59.90;;;;;;4971208;28;20421;-86
2021/11/16 00:54:28;;;;;;;31.43;21.07;;;7.60;59.70;;;;;;4970679;28;20209;-86
2021/11/16 00:56:54;;;;;;;26.43;21.30;;;7.50;59.80;;;;;;4971235;28;20413;-86
2021/11/16 00:59:19;;;;;;;25.93;20.57;;;7.50;60.50;;;;;;4971930;28;20496;-85
2021/11/16 01:01:46;;;;;;;30.87;21.70;;;7.60;59.90;;;;;;4970999;28;20181;-86
2021/11/16 01:04:14;;;;;;;27.53;21.80;;;7.60;59.10;;;;;;4971451;28;20652;-86
2021/11/16 01:06:40;;;;;;;29.23;21.33;;;7.60;59.90;;;;;;4970895;28;20892;-85
2021/11/16 01:09:06;;;;;;;26.90;21.30;;;7.60;59.80;;;;;;4970987;28;20504;-86
2021/11/16 01:11:33;;;;;;;27.47;21.10;;;7.50;59.80;;;;;;4970355;28;20485;-85
2021/11/16 01:13:58;;;;;;;28.33;22.67;;;7.60;59.90;;;;;;4970659;28;20238;-85
2021/11/16 01:16:24;;;;;;;26.33;20.27;;;7.50;59.80;;;;;;4966701;28;20457;-84
2021/11/16 01:18:50;;;;;;;26.10;20.83;;;7.50;60.10;;;;;;4979643;28;20525;-84
2021/11/16 01:21:16;;;;;;;26.00;20.67;;;7.50;59.80;;;;;;4969918;28;20193;-83
2021/11/16 01:23:42;;;;;;;27.80;21.03;;;7.50;60.00;;;;;;4970433;28;20196;-84
2021/11/16 01:26:08;;;;;;;26.77;21.70;;;7.50;59.80;;;;;;4970958;28;20425;-84
2021/11/16 01:28:34;;;;;;;25.27;20.70;;;7.60;59.30;;;;;;4971310;28;20528;-84
2021/11/16 01:31:03;;;;;;;21.87;18.07;;;7.50;59.60;;;;;;4968044;28;20977;-84
2021/11/16 01:33:49;;;;;;;20.97;18.60;;;7.50;59.40;;;;;;4986997;28;20764;-84
2021/11/16 01:36:15;;;;;;;23.10;17.40;;;7.60;59.00;;;;;;4988721;28;20422;-84
2021/11/16 01:38:42;;;;;;;26.30;19.00;;;7.50;59.20;;;;;;4977722;28;20476;-83
2021/11/16 01:41:09;;;;;;;23.87;19.60;;;7.50;59.50;;;;;;4985599;28;20444;-83
2021/11/16 01:43:35;;;;;;;23.97;21.07;;;7.40;59.00;;;;;;4986447;28;20413;-83
2021/11/16 01:46:04;;;;;;;24.67;19.57;;;7.40;60.40;;;;;;4985871;28;20945;-85
2021/11/16 01:48:32;;;;;;;24.83;19.27;;;7.40;59.70;;;;;;4985647;28;20509;-82
2021/11/16 01:50:58;;;;;;;27.30;21.37;;;7.40;59.70;;;;;;4973762;28;20434;-82
2021/11/16 01:53:24;;;;;;;25.67;19.00;;;7.40;60.40;;;;;;4966420;28;20426;-83
2021/11/16 01:55:49;;;;;;;22.67;19.30;;;7.40;59.70;;;;;;4966199;28;20427;-84
2021/11/16 01:58:15;;;;;;;22.50;19.20;;;7.40;59.70;;;;;;4966431;28;20338;-83
2021/11/16 02:00:43;;;;;;;22.80;18.80;;;7.50;59.80;;;;;;4966107;28;20179;-83
2021/11/16 02:03:11;;;;;;;26.37;19.90;;;7.50;59.30;;;;;;4966120;28;20183;-84
2021/11/16 02:05:41;;;;;;;31.63;21.90;;;7.50;60.20;;;;;;4965981;28;20426;-83
2021/11/16 02:08:08;;;;;;;27.43;20.90;;;7.50;58.80;;;;;;4965826;28;20434;-84
2021/11/16 02:10:34;;;;;;;24.90;19.70;;;7.50;59.10;;;;;;4965347;28;20534;-83
2021/11/16 02:12:59;;;;;;;24.30;19.03;;;7.50;59.80;;;;;;4965815;28;20435;-84
2021/11/16 02:15:25;;;;;;;23.23;18.50;;;7.50;59.80;;;;;;4966151;28;20261;-84
2021/11/16 02:17:52;;;;;;;25.00;19.93;;;7.50;59.80;;;;;;4969071;28;20185;-83
2021/11/16 02:20:17;;;;;;;28.27;21.47;;;7.50;59.80;;;;;;4970663;28;20480;-83
2021/11/16 02:22:44;;;;;;;27.70;21.60;;;7.50;59.80;;;;;;4970295;28;20442;-86
2021/11/16 02:25:11;;;;;;;25.10;20.30;;;7.50;59.80;;;;;;4970029;28;20191;-85
2021/11/16 02:27:37;;;;;;;27.03;20.57;;;7.50;59.80;;;;;;4973635;28;20436;-86
2021/11/16 02:30:06;;;;;;;26.47;20.00;;;7.50;60.00;;;;;;4992269;28;20437;-85
2021/11/16 02:32:32;;;;;;;27.10;19.80;;;7.50;59.80;;;;;;4977457;28;20179;-84
2021/11/16 02:34:59;;;;;;;26.50;20.47;;;7.50;59.80;;;;;;4989192;28;20610;-86
2021/11/16 02:37:29;;;;;;;22.80;19.20;;;7.50;59.80;;;;;;4984073;28;20829;-86
2021/11/16 02:39:55;;;;;;;23.03;18.37;;;7.40;59.50;;;;;;4954028;29;20419;-86
2021/11/16 02:42:21;;;;;;;24.43;20.00;;;7.40;59.70;;;;;;4969289;28;20562;-85
2021/11/16 02:44:47;;;;;;;24.90;18.60;;;7.40;59.70;;;;;;4979268;28;20189;-85
2021/11/16 02:47:13;;;;;;;22.40;18.53;;;7.40;59.70;;;;;;4988871;28;20423;-85
2021/11/16 02:49:39;;;;;;;23.53;19.33;;;7.40;60.00;;;;;;4989396;28;20414;-85
2021/11/16 02:52:15;;;;;;;24.47;18.97;;;7.40;60.00;;;;;;4976103;28;20438;-84
2021/11/16 02:54:41;;;;;;;24.50;18.70;;;7.40;59.70;;;;;;4969225;28;20209;-86
2021/11/16 02:57:11;;;;;;;25.87;19.37;;;7.40;59.70;;;;;;4970199;28;20421;-86
2021/11/16 02:59:37;;;;;;;23.63;19.57;;;7.50;59.80;;;;;;4973071;28;20449;-85
2021/11/16 03:02:03;;;;;;;21.83;17.80;;;7.40;59.70;;;;;;4988703;28;20418;-86
2021/11/16 03:04:33;;;;;;;25.50;19.63;;;7.40;59.70;;;;;;4973019;28;20461;-86
2021/11/16 03:07:02;;;;;;;27.00;19.00;;;7.30;59.90;;;;;;4972889;28;20933;-85
2021/11/16 03:09:30;;;;;;;25.97;17.93;;;7.30;61.20;;;;;;4971949;28;20418;-85
2021/11/16 03:11:57;;;;;;;28.53;19.47;;;7.30;60.90;;;;;;4972550;28;20417;-86
2021/11/16 03:14:24;;;;;;;25.50;19.27;;;7.30;60.90;;;;;;4971788;28;20828;-86
2021/11/16 03:16:50;;;;;;;26.63;19.63;;;7.30;59.90;;;;;;4972402;28;20433;-84
2021/11/16 03:19:16;;;;;;;22.50;17.47;;;7.30;59.60;;;;;;4971976;28;20779;-85
2021/11/16 03:21:44;;;;;;;22.80;17.97;;;7.30;60.00;;;;;;4971804;28;20779;-84
2021/11/16 03:24:12;;;;;;;22.97;19.10;;;7.30;60.30;;;;;;4971399;28;20487;-85
2021/11/16 03:26:38;;;;;;;23.57;18.33;;;7.30;59.70;;;;;;4971373;28;20974;-85
2021/11/16 03:29:04;;;;;;;26.47;19.80;;;7.30;59.60;;;;;;4971865;28;20428;-88
2021/11/16 03:31:39;;;;;;;27.43;20.40;;;7.30;60.30;;;;;;4972283;28;20200;-89
2021/11/16 03:34:05;;;;;;;26.90;20.00;;;7.30;60.70;;;;;;4987135;28;20468;-84
2021/11/16 03:36:32;;;;;;;25.07;18.93;;;7.30;60.20;;;;;;4970988;28;20422;-86
2021/11/16 03:39:00;;;;;;;23.40;19.90;;;7.30;60.50;;;;;;4965266;28;20182;-86
2021/11/16 03:41:26;;;;;;;25.50;19.00;;;7.30;60.30;;;;;;4954616;28;20436;-83
2021/11/16 03:43:54;;;;;;;26.67;19.43;;;7.40;60.40;;;;;;4965983;28;20676;-84
2021/11/16 03:46:20;;;;;;;23.83;18.77;;;7.30;59.60;;;;;;4962463;28;20440;-83
2021/11/16 03:48:46;;;;;;;22.90;17.93;;;7.40;60.40;;;;;;4970446;28;20792;-86
2021/11/16 03:51:12;;;;;;;21.90;17.40;;;7.40;59.70;;;;;;4971160;28;20483;-84
2021/11/16 03:53:38;;;;;;;22.80;18.43;;;7.30;59.70;;;;;;4970710;28;20441;-84
2021/11/16 03:56:04;;;;;;;27.43;19.83;;;7.30;60.50;;;;;;4970060;28;20432;-83
2021/11/16 03:58:30;;;;;;;29.37;19.13;;;7.20;60.60;;;;;;4970225;28;20424;-84
2021/11/16 04:01:03;;;;;;;21.73;17.93;;;7.30;60.70;;;;;;4969759;28;20952;-86
2021/11/16 04:03:32;;;;;;;24.73;18.80;;;7.30;60.70;;;;;;4970399;28;20192;-85
2021/11/16 04:05:59;;;;;;;23.17;17.57;;;7.20;60.80;;;;;;4964701;28;20774;-85
2021/11/16 04:08:25;;;;;;;21.10;17.37;;;7.10;61.60;;;;;;4965791;28;20465;-85
2021/11/16 04:10:51;;;;;;;24.40;17.77;;;7.20;61.40;;;;;;4963517;28;20441;-85
2021/11/16 04:13:17;;;;;;;23.77;19.37;;;7.10;61.70;;;;;;4962414;28;20425;-85
2021/11/16 04:15:46;;;;;;;25.23;19.00;;;7.10;62.30;;;;;;4970798;28;20499;-84
2021/11/16 04:18:11;;;;;;;26.63;18.77;;;7.10;61.40;;;;;;4970623;28;20455;-84
2021/11/16 04:20:40;;;;;;;22.63;17.43;;;7.00;61.80;;;;;;4970456;28;20464;-84
2021/11/16 04:23:08;;;;;;;24.42;20.55;;;7.00;61.30;;;;;;4969497;28;20915;-85
2021/11/16 04:25:38;;;;;;;23.73;18.83;;;7.10;62.00;;;;;;4971693;28;20186;-85
2021/11/16 04:28:05;;;;;;;24.10;18.30;;;7.10;61.90;;;;;;4970650;28;20528;-84
2021/11/16 04:30:32;;;;;;;25.73;18.73;;;7.10;61.60;;;;;;4970039;28;20417;-85
2021/11/16 04:32:58;;;;;;;25.03;18.83;;;7.10;61.80;;;;;;4970170;28;20430;-85
2021/11/16 04:35:25;;;;;;;23.30;16.77;;;7.20;61.80;;;;;;4970144;28;21108;-85
2021/11/16 04:37:54;;;;;;;20.57;16.90;;;7.20;61.40;;;;;;4969915;28;20468;-85
2021/11/16 04:40:27;;;;;;;22.87;18.70;;;7.20;61.40;;;;;;4969818;28;20765;-84
2021/11/16 04:42:55;;;;;;;24.57;18.03;;;7.20;61.00;;;;;;4971806;28;20456;-84
2021/11/16 04:45:23;;;;;;;26.83;18.07;;;7.20;61.20;;;;;;4970400;28;20464;-85
2021/11/16 04:47:59;;;;;;;22.47;18.17;;;7.20;60.30;;;;;;4970095;28;20452;-86
2021/11/16 05:03:54;;;;;;;24.30;17.77;;;7.10;61.00;;;;;;4968734;28;20445;-82
2021/11/16 05:06:20;;;;;;;22.53;16.90;;;7.10;62.00;;;;;;4963029;28;20428;-83
2021/11/16 05:08:47;;;;;;;22.77;18.27;;;7.10;61.80;;;;;;4962170;28;20426;-83
2021/11/16 05:11:14;;;;;;;24.10;17.47;;;7.20;61.60;;;;;;4961340;28;20468;-83
2021/11/16 05:13:43;;;;;;;23.07;16.50;;;7.20;61.00;;;;;;4969250;28;20449;-83
2021/11/16 05:16:15;;;;;;;24.90;18.77;;;7.10;61.60;;;;;;4962574;28;20422;-83
2021/11/16 05:18:41;;;;;;;22.53;18.60;;;7.10;61.20;;;;;;4969993;28;20827;-83
2021/11/16 05:21:08;;;;;;;23.60;18.90;;;7.10;60.50;;;;;;4969907;28;20436;-83
2021/11/16 05:23:40;;;;;;;26.50;18.60;;;7.10;60.60;;;;;;4970335;28;20414;-83
2021/11/16 05:26:06;;;;;;;24.00;18.53;;;7.10;61.10;;;;;;4970681;28;21119;-83
2021/11/16 05:28:31;;;;;;;21.17;17.70;;;7.10;60.70;;;;;;4970848;28;20528;-83
2021/11/16 05:30:57;;;;;;;24.07;18.37;;;7.10;60.20;;;;;;4970571;28;20202;-83
2021/11/16 05:33:24;;;;;;;24.10;17.40;;;7.10;60.40;;;;;;4970334;28;20273;-82
2021/11/16 05:35:51;;;;;;;27.53;19.87;;;7.00;61.70;;;;;;4963849;28;20195;-83
2021/11/16 05:38:28;;;;;;;23.10;18.33;;;7.00;62.40;;;;;;4971198;28;20496;-85
2021/11/16 05:40:54;;;;;;;21.80;16.23;;;7.00;62.10;;;;;;4971206;28;20460;-84
2021/11/16 05:43:20;;;;;;;21.40;15.93;;;6.90;62.60;;;;;;4971227;28;20479;-84
2021/11/16 05:45:46;;;;;;;22.47;18.07;;;7.00;62.20;;;;;;4971849;28;20464;-84
2021/11/16 05:48:12;;;;;;;22.00;17.07;;;7.00;62.10;;;;;;4971365;28;20830;-84
2021/11/16 05:50:38;;;;;;;21.50;17.10;;;6.90;61.90;;;;;;4974134;28;20416;-85
2021/11/16 05:53:05;;;;;;;25.27;18.90;;;6.90;62.30;;;;;;4975738;28;20424;-84
2021/11/16 05:55:31;;;;;;;21.93;16.73;;;6.80;62.20;;;;;;4976020;28;20465;-84
2021/11/16 05:57:57;;;;;;;25.43;17.67;;;6.70;62.20;;;;;;4977016;28;20927;-84
2021/11/16 06:00:23;;;;;;;23.17;17.93;;;6.80;62.50;;;;;;4977451;28;20174;-84
2021/11/16 06:02:52;;;;;;;23.33;17.30;;;6.70;62.40;;;;;;4976031;28;20205;-84
2021/11/16 06:05:20;;;;;;;26.57;18.83;;;6.80;62.40;;;;;;4975957;28;20515;-85
2021/11/16 06:07:46;;;;;;;23.37;17.97;;;6.80;62.30;;;;;;4975272;28;20473;-84
2021/11/16 06:10:12;;;;;;;23.57;17.40;;;6.80;62.60;;;;;;4975245;28;20432;-85
2021/11/16 06:12:38;;;;;;;23.37;18.13;;;6.90;62.10;;;;;;4975674;28;20440;-85
2021/11/16 06:15:05;;;;;;;21.53;16.10;;;6.80;62.70;;;;;;4975222;28;20543;-86
2021/11/16 06:17:31;;;;;;;24.83;19.10;;;6.80;62.00;;;;;;4975091;28;20182;-85
2021/11/16 06:19:58;;;;;;;23.33;17.97;;;6.90;62.50;;;;;;4975221;28;20852;-83
2021/11/16 06:22:24;;;;;;;24.33;18.13;;;6.90;62.30;;;;;;4974777;28;20473;-86
2021/11/16 06:24:49;;;;;;;23.20;17.77;;;6.90;62.60;;;;;;4975448;28;20467;-86
2021/11/16 06:27:15;;;;;;;23.37;16.80;;;6.80;62.00;;;;;;4974937;28;20848;-80
2021/11/16 06:29:41;;;;;;;23.67;17.07;;;6.70;62.20;;;;;;4975260;28;20650;-84
2021/11/16 06:32:08;;;;;;;22.87;16.67;;;6.70;63.00;;;;;;4974960;28;20451;-83
2021/11/16 06:34:35;;;;;;;23.57;18.40;;;6.80;62.10;;;;;;4974759;28;20214;-83
2021/11/16 06:37:01;;;;;;;24.57;17.73;;;6.70;62.50;;;;;;4974626;28;20504;-84
2021/11/16 06:39:26;;;;;;;21.83;17.07;;;6.70;62.40;;;;;;4975308;28;20858;-85
2021/11/16 06:41:55;;;;;;;21.63;17.80;;;6.70;62.30;;;;;;4975269;28;20936;-82
2021/11/16 06:44:24;;;;;;;27.20;19.43;;;6.70;62.30;;;;;;4974593;28;20639;-84
2021/11/16 06:46:51;;;;;;;19.63;16.90;;;6.80;62.20;;;;;;4961083;28;20418;-84
2021/11/16 06:49:18;;;;;;;20.60;15.67;;;6.60;61.90;;;;;;4966873;28;20427;-84
2021/11/16 06:51:46;;;;;;;21.63;17.67;;;6.60;62.00;;;;;;4974693;28;20422;-84
2021/11/16 06:54:15;;;;;;;21.93;16.70;;;6.60;62.40;;;;;;4974642;28;20475;-85
2021/11/16 06:56:41;;;;;;;20.50;17.30;;;6.70;62.70;;;;;;4974734;28;20434;-85
2021/11/16 06:59:08;;;;;;;21.90;15.70;;;6.70;61.90;;;;;;4974870;28;20793;-84
2021/11/16 07:01:37;;;;;;;20.23;16.43;;;6.70;61.60;;;;;;4974067;28;20416;-85
2021/11/16 07:04:08;;;;;;;20.87;16.90;;;6.70;61.10;;;;;;4972943;28;20941;-85
2021/11/16 07:06:36;;;;;;;18.53;15.17;;;6.80;60.90;;;;;;4974899;28;20779;-84
2021/11/16 07:09:03;;;;;;;19.00;15.37;;;6.80;61.00;;;;;;4974480;28;20440;-84
2021/11/16 07:11:29;;;;;;;19.87;15.57;;;6.80;60.60;;;;;;4974374;28;20436;-84
2021/11/16 07:13:58;;;;;;;18.13;14.00;;;6.70;60.30;;;;;;4974279;28;20429;-84
2021/11/16 07:16:26;;;;;;;20.97;15.03;;;6.70;60.30;;;;;;4974381;28;20182;-84
2021/11/16 07:18:56;;;;;;;18.30;14.93;;;6.70;60.40;;;;;;4974006;28;20425;-84
2021/11/16 07:21:23;;;;;;;18.17;14.67;;;6.70;60.90;;;;;;4973926;28;20857;-82
2021/11/16 07:24:09;;;;;;;18.60;14.50;;;6.80;60.50;;;;;;4973605;28;20425;-81
2021/11/16 07:26:41;;;;;;;18.73;14.63;;;6.70;60.10;;;;;;4974892;28;20417;-82
2021/11/16 07:29:15;;;;;;;21.53;15.63;;;6.80;60.20;;;;;;4972504;28;20502;-82
2021/11/16 07:31:42;;;;;;;19.23;14.80;;;6.80;60.00;;;;;;4973764;28;20555;-82
2021/11/16 07:34:20;;;;;;;20.00;16.77;;;6.80;60.20;;;;;;4973630;28;20475;-82
2021/11/16 07:36:58;;;;;;;18.00;15.90;;;6.80;59.20;;;;;;4973684;28;20418;-82
2021/11/16 07:39:25;;;;;;;17.13;14.83;;;6.80;59.60;;;;;;4973739;28;20421;-82
2021/11/16 07:41:52;;;;;;;16.47;14.43;;;6.60;59.90;;;;;;4973791;28;20419;-82
2021/11/16 07:44:18;;;;;;;17.07;14.27;;;6.60;60.10;;;;;;4973760;28;20986;-85
2021/11/16 07:46:53;;;;;;;22.00;13.67;;;6.60;60.30;;;;;;4973645;28;20422;-84
2021/11/16 07:49:19;;;;;;;17.13;13.43;;;6.60;60.10;;;;;;4973744;28;20190;-84
2021/11/16 07:51:45;;;;;;;17.77;15.67;;;6.80;59.20;;;;;;4973874;28;20418;-86
2021/11/16 07:54:11;;;;;;;18.50;15.80;;;6.80;59.20;;;;;;4973593;28;20982;-85
2021/11/16 07:56:36;;;;;;;20.10;15.43;;;6.80;59.30;;;;;;4973673;28;20205;-84
2021/11/16 07:59:05;;;;;;;18.27;14.80;;;6.70;59.10;;;;;;4973839;28;20571;-85
2021/11/16 08:01:42;;;;;;;18.40;14.20;;;6.80;59.20;;;;;;4973617;28;20548;-84
2021/11/16 08:06:51;;;;;;;20.90;14.20;;;6.80;58.80;;;;;;4974225;28;20457;-83
2021/11/16 08:11:50;;;;;;;19.97;14.73;;;7.00;59.10;;;;;;4974623;28;20429;-83
2021/11/16 08:14:17;;;;;;;16.80;13.77;;;7.70;73.70;;;;;;4971992;28;20260;-83
2021/11/16 08:16:57;;;;;;;15.13;12.53;;;7.40;57.20;;;;;;4972989;28;20416;-84
2021/11/16 08:19:28;;;;;;;21.70;14.77;;;7.20;57.40;;;;;;4973275;28;20485;-84
2021/11/16 08:21:56;;;;;;;17.00;13.07;;;7.10;58.20;;;;;;4972874;28;20579;-84
2021/11/16 08:24:23;;;;;;;18.10;13.57;;;7.00;57.40;;;;;;4973212;28;20477;-84
2021/11/16 08:26:51;;;;;;;16.73;14.10;;;7.00;57.80;;;;;;4972740;28;20924;-83
2021/11/16 08:29:28;;;;;;;19.47;13.07;;;7.00;57.80;;;;;;4973061;28;20433;-84
2021/11/16 08:32:07;;;;;;;17.07;13.00;;;7.10;57.80;;;;;;4972733;28;20425;-84
2021/11/16 08:34:35;;;;;;;15.53;12.00;;;7.00;57.80;;;;;;4972730;28;20468;-84
2021/11/16 08:37:06;;;;;;;17.20;14.00;;;7.00;57.70;;;;;;4972682;28;20432;-84
2021/11/16 08:39:47;;;;;;;17.70;13.50;;;7.10;57.80;;;;;;4972922;28;20418;-84
2021/11/16 08:42:18;;;;;;;21.60;13.77;;;7.00;57.80;;;;;;4972700;28;20432;-84
2021/11/16 08:44:55;;;;;;;24.80;15.20;;;7.10;57.40;;;;;;4972820;28;20485;-85
2021/11/16 08:47:26;;;;;;;19.67;15.70;;;7.00;57.60;;;;;;4973174;28;20410;-84
2021/11/16 08:49:51;;;;;;;20.87;15.53;;;7.00;58.20;;;;;;4973576;28;20434;-84
2021/11/16 08:52:17;;;;;;;25.40;18.20;;;7.00;57.80;;;;;;4973168;28;20463;-84
2021/11/16 08:55:02;;;;;;;24.57;17.80;;;7.10;58.70;;;;;;4973777;28;20205;-84
2021/11/16 08:57:31;;;;;;;24.27;17.00;;;7.10;58.10;;;;;;4972494;28;20405;-82
2021/11/16 08:59:56;;;;;;;22.50;17.53;;;7.00;58.40;;;;;;4972790;28;20426;-83
2021/11/16 09:02:25;;;;;;;21.03;15.43;;;7.00;58.80;;;;;;4972415;28;20651;-83
2021/11/16 09:04:51;;;;;;;23.90;15.93;;;7.00;58.80;;;;;;4972299;28;20432;-82
2021/11/16 09:07:31;;;;;;;21.77;17.20;;;7.00;59.40;;;;;;4972219;28;20437;-82
2021/11/16 09:10:10;;;;;;;22.53;16.80;;;7.00;59.40;;;;;;4972451;28;20452;-83
2021/11/16 09:12:39;;;;;;;20.63;15.30;;;7.10;58.20;;;;;;4972262;28;20452;-83
2021/11/16 09:15:07;;;;;;;20.40;14.73;;;7.10;59.00;;;;;;4972205;28;20462;-83
2021/11/16 09:17:32;;;;;;;18.93;13.43;;;7.00;58.20;;;;;;4973420;28;20844;-85
2021/11/16 09:20:22;;;;;;;17.53;13.87;;;7.00;58.40;;;;;;4973851;28;20450;-85
2021/11/16 09:22:50;;;;;;;15.27;11.40;;;7.00;58.40;;;;;;4972496;28;20317;-85
2021/11/16 09:25:31;;;;;;;15.27;11.60;;;7.00;57.40;;;;;;4971976;28;20838;-83
2021/11/16 09:28:22;;;;;;;13.60;10.50;;;7.00;57.60;;;;;;4972703;28;20429;-85
2021/11/16 09:30:47;;;;;;;17.93;12.10;;;7.00;57.80;;;;;;4973039;28;20501;-87
2021/11/16 09:33:19;;;;;;;15.13;11.67;;;7.10;57.70;;;;;;4973594;28;21009;-87
2021/11/16 09:35:50;;;;;;;13.63;11.43;;;7.00;57.00;;;;;;4972806;28;20445;-87
2021/11/16 09:38:32;;;;;;;16.70;9.00;;;7.00;56.60;;;;;;4972847;28;20534;-86
2021/11/16 09:40:58;;;;;;;12.40;9.43;;;7.00;56.50;;;;;;4972702;28;20563;-86
2021/11/16 09:43:25;;;;;;;14.43;10.23;;;7.00;57.30;;;;;;4972645;28;20516;-86
2021/11/16 09:45:51;;;;;;;12.70;10.17;;;7.10;56.60;;;;;;4972199;28;20215;-85
2021/11/16 09:48:22;;;;;;;12.90;10.00;;;7.10;56.50;;;;;;4963932;28;20429;-86
2021/11/16 09:50:49;;;;;;;10.33;8.90;;;7.10;56.30;;;;;;4973033;28;20424;-86
2021/11/16 09:53:16;;;;;;;12.77;9.10;;;7.10;55.60;;;;;;4972169;28;20422;-84
2021/11/16 09:55:42;;;;;;;10.60;9.20;;;7.10;55.90;;;;;;4971684;28;20475;-85
2021/11/16 09:58:20;;;;;;;11.73;9.40;;;7.10;55.20;;;;;;4972127;28;20470;-84
2021/11/16 10:00:47;;;;;;;10.70;8.33;;;7.10;56.20;;;;;;4967848;28;20430;-85
2021/11/16 10:03:24;;;;;;;12.40;9.90;;;7.10;56.10;;;;;;4952710;29;20414;-85
2021/11/16 10:05:54;;;;;;;14.00;10.10;;;7.10;55.30;;;;;;4953150;29;20448;-85
2021/11/16 10:08:21;;;;;;;12.47;9.67;;;7.10;55.60;;;;;;4955156;29;20423;-84
2021/11/16 10:10:50;;;;;;;10.40;8.13;;;7.10;55.40;;;;;;4953947;29;20506;-85
2021/11/16 10:13:22;;;;;;;8.93;8.03;;;7.10;55.20;;;;;;4952976;29;20940;-85
2021/11/16 10:15:51;;;;;;;10.60;8.23;;;7.20;55.30;;;;;;4952493;29;20861;-85
2021/11/16 10:18:19;;;;;;;9.60;8.17;;;7.20;55.50;;;;;;4965584;28;20827;-85
2021/11/16 10:20:47;;;;;;;10.73;8.30;;;7.20;55.00;;;;;;4971046;28;20439;-85
2021/11/16 10:23:17;;;;;;;13.23;9.37;;;7.20;55.40;;;;;;4986217;28;20436;-85
2021/11/16 10:25:53;;;;;;;12.37;8.80;;;7.10;54.80;;;;;;4971822;28;20418;-85
2021/11/16 10:28:20;;;;;;;11.13;8.47;;;7.10;55.30;;;;;;4971268;28;20417;-85
2021/11/16 10:30:46;;;;;;;12.50;8.10;;;7.20;54.60;;;;;;4971818;28;20417;-85
2021/11/16 10:33:15;;;;;;;13.03;8.70;;;7.10;55.30;;;;;;4971755;28;20413;-84
2021/11/16 10:35:51;;;;;;;10.40;7.57;;;7.00;55.70;;;;;;4971577;28;20461;-84
2021/11/16 10:38:20;;;;;;;9.70;7.70;;;7.00;56.40;;;;;;4958444;28;20919;-84
2021/11/16 10:40:46;;;;;;;13.20;8.33;;;6.90;56.60;;;;;;4955577;29;20426;-84
2021/11/16 10:43:12;;;;;;;11.10;8.10;;;7.00;56.50;;;;;;4955703;29;20837;-84
2021/11/16 10:45:45;;;;;;;13.93;7.53;;;7.10;56.50;;;;;;4955710;29;20458;-86
2021/11/16 10:48:17;;;;;;;10.47;8.43;;;7.10;56.20;;;;;;4955614;29;20474;-85
2021/11/16 10:50:46;;;;;;;10.00;8.07;;;7.00;56.10;;;;;;4955479;29;20442;-82
2021/11/16 10:53:18;;;;;;;9.63;8.30;;;7.00;55.90;;;;;;4966589;28;20441;-83
2021/11/16 10:55:46;;;;;;;9.30;7.60;;;7.20;56.20;;;;;;4982177;28;20477;-83
2021/11/16 10:58:22;;;;;;;9.20;7.60;;;7.10;55.50;;;;;;4970605;28;20782;-84
2021/11/16 11:00:53;;;;;;;12.53;8.07;;;7.00;55.10;;;;;;4976035;28;20414;-84
2021/11/16 11:03:28;;;;;;;11.50;7.90;;;7.00;55.80;;;;;;4979889;28;20772;-83
2021/11/16 11:06:07;;;;;;;11.60;7.80;;;7.00;56.00;;;;;;4978081;28;20516;-82
2021/11/16 11:08:37;;;;;;;12.80;8.60;;;7.00;56.20;;;;;;4974640;28;20462;-84
2021/11/16 11:11:06;;;;;;;8.40;7.60;;;7.00;56.30;;;;;;4974626;28;20472;-83
2021/11/16 11:13:33;;;;;;;10.90;7.17;;;7.10;56.10;;;;;;4974548;28;20422;-84
2021/11/16 11:15:59;;;;;;;9.47;6.70;;;7.10;55.80;;;;;;4974447;28;20469;-83
2021/11/16 11:18:47;;;;;;;7.90;6.80;;;7.20;55.70;;;;;;4974494;28;20934;-85
2021/11/16 11:22:11;;;;;;;9.87;7.40;;;7.30;55.40;;;;;;4974201;28;20909;-84
2021/11/16 11:24:46;;;;;;;9.33;7.33;;;7.40;55.30;;;;;;4973339;28;20548;-84
2021/11/16 11:29:46;;;;;;;8.37;6.17;;;7.20;55.10;;;;;;4975803;28;20418;-84
2021/11/16 11:32:38;;;;;;;8.43;7.03;;;7.30;54.80;;;;;;4974018;28;20479;-84
2021/11/16 11:35:10;;;;;;;9.10;6.60;;;7.40;54.60;;;;;;4973800;28;20461;-84
2021/11/16 11:37:43;;;;;;;7.50;6.30;;;7.40;53.80;;;;;;4973473;28;20449;-83
2021/11/16 11:40:30;;;;;;;7.27;5.87;;;7.30;53.40;;;;;;4973893;28;20470;-84
2021/11/16 11:42:57;;;;;;;7.87;5.23;;;7.30;53.60;;;;;;4974443;28;20413;-85
2021/11/16 11:45:32;;;;;;;10.13;6.57;;;7.30;53.40;;;;;;4973936;28;20421;-84
2021/11/16 11:48:01;;;;;;;8.30;6.53;;;7.30;54.00;;;;;;4973332;28;20427;-85
2021/11/16 11:50:35;;;;;;;7.83;5.60;;;7.40;53.80;;;;;;4973629;28;20432;-85
2021/11/16 11:53:06;;;;;;;6.20;5.57;;;7.40;54.20;;;;;;4973784;28;20425;-83
2021/11/16 11:55:42;;;;;;;7.07;6.13;;;7.30;53.50;;;;;;4968198;28;20480;-84
2021/11/16 11:58:10;;;;;;;7.77;6.83;;;7.40;53.90;;;;;;4973475;28;20448;-85
2021/11/16 12:00:39;;;;;;;6.90;5.90;;;7.50;54.30;;;;;;4973259;28;20432;-84
2021/11/16 12:03:06;;;;;;;7.00;6.27;;;7.40;53.10;;;;;;4972717;28;20413;-84
2021/11/16 12:05:33;;;;;;;8.50;6.53;;;7.40;53.10;;;;;;4973365;28;20438;-84
2021/11/16 12:08:00;;;;;;;6.90;6.03;;;7.40;52.70;;;;;;4973368;28;20417;-85
2021/11/16 12:10:26;;;;;;;7.63;6.37;;;7.30;52.70;;;;;;4970415;28;20422;-85
2021/11/16 12:12:53;;;;;;;8.93;6.60;;;7.30;53.60;;;;;;4953881;29;20424;-84
2021/11/16 12:15:34;;;;;;;8.53;6.60;;;7.20;53.90;;;;;;4953743;29;20473;-82
2021/11/16 12:18:02;;;;;;;6.07;5.53;;;7.30;54.60;;;;;;4954517;28;20462;-84
2021/11/16 12:20:56;;;;;;;9.47;6.27;;;7.30;53.70;;;;;;4954055;29;20449;-84
2021/11/16 12:23:41;;;;;;;10.00;6.47;;;7.40;53.80;;;;;;4953076;29;20777;-84
2021/11/16 12:26:11;;;;;;;8.70;6.97;;;7.40;54.00;;;;;;4953406;29;20418;-83
2021/11/16 12:28:38;;;;;;;7.93;6.90;;;7.40;54.00;;;;;;4953658;29;20465;-84
2021/11/16 12:31:05;;;;;;;8.67;5.83;;;7.30;54.00;;;;;;4953378;29;20457;-83
2021/11/16 12:33:46;;;;;;;7.80;6.30;;;7.20;54.10;;;;;;4952961;29;20457;-84
2021/11/16 12:36:35;;;;;;;6.93;6.23;;;7.30;54.70;;;;;;4954719;28;20465;-84
2021/11/16 12:39:19;;;;;;;7.03;5.60;;;7.40;54.20;;;;;;4953445;29;20505;-84
2021/11/16 12:41:52;;;;;;;6.30;5.70;;;7.40;54.00;;;;;;4952966;29;20425;-84
2021/11/16 12:44:41;;;;;;;7.57;6.30;;;7.40;53.80;;;;;;4953691;29;20957;-83
2021/11/16 12:47:09;;;;;;;6.43;5.33;;;7.30;54.00;;;;;;4952899;29;20458;-84
2021/11/16 12:49:44;;;;;;;8.83;5.90;;;7.20;54.10;;;;;;4954512;28;20407;-83
2021/11/16 12:52:13;;;;;;;7.73;6.27;;;7.30;54.10;;;;;;4953012;29;20438;-84
2021/11/16 12:54:39;;;;;;;7.53;6.73;;;7.30;54.80;;;;;;4953621;29;20469;-84
2021/11/16 12:57:11;;;;;;;6.50;5.90;;;7.30;54.30;;;;;;4954488;29;20502;-84
2021/11/16 12:59:43;;;;;;;8.17;6.07;;;7.40;54.30;;;;;;4953960;28;20411;-85
2021/11/16 13:02:44;;;;;;;6.80;6.10;;;7.50;53.70;;;;;;4952921;29;20425;-85
2021/11/16 13:05:11;;;;;;;7.03;6.20;;;7.40;54.20;;;;;;4953171;29;20859;-84
2021/11/16 13:07:41;;;;;;;7.50;5.60;;;7.40;53.80;;;;;;4952852;29;20422;-84
2021/11/16 13:10:11;;;;;;;7.50;6.70;;;7.40;53.10;;;;;;4952802;29;20517;-85
2021/11/16 13:12:48;;;;;;;7.80;6.60;;;7.40;53.80;;;;;;4953093;29;20418;-84